Vfpa 1 — VG2773 — position and weather

sailwx.info

Track history (hours):
 
Tides and Currents Weather Stations Pressure Air Temp Water Temp Dewpoint Dewpoint Depression Visibility Wind Speed Wind Dir Waves Ship Positions

Vfpa 1

Last reported at 2015-May-23 03:33 UTC. Time now 2015-May-23 04:21 UTC.
Position N 49°17' W 123°06'.

; draft 1.4 m.

Type: Dredging. MMSI: 316014014.

Date/timePositionNaut miles runAvg speedWind from/ knotsBaromVisibWave heightAir tempDewpointWater temp
2015-May-23 03:33N 49°17' W 123°06'0 0.0
2015-May-23 02:33N 49°17' W 123°06'0 0.0
2015-May-23 01:30N 49°17' W 123°06'0 0.0
2015-May-23 00:33N 49°17' W 123°06'0 0.0
2015-May-22 23:33N 49°17' W 123°06'0 0.0
2015-May-22 22:34N 49°17' W 123°06'0 0.0
2015-May-22 21:32N 49°17' W 123°06'0 0.0
2015-May-22 20:32N 49°17' W 123°06'0 0.0
2015-May-22 19:34N 49°17' W 123°06'0 0.0
2015-May-22 18:33N 49°17' W 123°06'0 0.0
2015-May-22 17:32N 49°17' W 123°06'0 0.0
2015-May-22 16:34N 49°17' W 123°06'0 0.0
2015-May-22 15:34N 49°17' W 123°06'0 0.0
2015-May-22 14:33N 49°17' W 123°06'0 0.0
2015-May-22 13:33N 49°17' W 123°06'0 0.0
2015-May-22 12:33N 49°17' W 123°06'0 0.0
2015-May-22 11:32N 49°17' W 123°06'0 0.0
2015-May-22 10:34N 49°17' W 123°06'0 0.0
2015-May-22 09:26N 49°17' W 123°06'0 0.0
2015-May-22 08:33N 49°17' W 123°06'0 0.0
2015-May-22 07:33N 49°17' W 123°06'0 0.0
2015-May-22 06:34N 49°17' W 123°06'0 0.0
2015-May-22 05:32N 49°17' W 123°06'0 0.0
2015-May-22 04:33N 49°17' W 123°06'0 0.0
2015-May-22 03:33N 49°17' W 123°06'0 0.0
2015-May-22 02:33N 49°17' W 123°06'0 0.0
2015-May-22 01:33N 49°17' W 123°06'0 0.0
2015-May-22 00:31N 49°17' W 123°06'0 0.0
2015-May-21 23:34N 49°17' W 123°06'0 0.0
2015-May-21 22:33N 49°17' W 123°06'5 5.3
2015-May-21 21:34N 49°18' W 122°58'7 6.6
2015-May-21 20:33N 49°19' W 123°08'2 1.9
2015-May-21 19:33N 49°17' W 123°06'0 0.2
2015-May-21 18:33N 49°17' W 123°06'2 1.5
2015-May-21 17:33N 49°19' W 123°06'2 1.5
2015-May-21 16:33N 49°17' W 123°06'0 0.0
2015-May-21 15:33N 49°17' W 123°06'0 0.0
2015-May-21 14:33N 49°17' W 123°06'0 0.0
2015-May-21 13:33N 49°17' W 123°06'0 0.0
2015-May-21 12:33N 49°17' W 123°06'0 0.0
2015-May-21 11:33N 49°17' W 123°06'0 0.0
2015-May-21 10:31N 49°17' W 123°06'0 0.0
2015-May-21 09:31N 49°17' W 123°06'0 0.0
2015-May-21 08:33N 49°17' W 123°06'0 0.0
2015-May-21 07:33N 49°17' W 123°06'0 0.0
2015-May-21 06:33N 49°17' W 123°06'0 0.0
2015-May-21 05:32N 49°17' W 123°06'0 0.0
2015-May-21 04:33N 49°17' W 123°06'0 0.0
2015-May-21 03:33N 49°17' W 123°06'0 0.0
2015-May-21 02:33N 49°17' W 123°06'0 0.0
2015-May-21 01:30N 49°17' W 123°06'0 0.0
2015-May-21 00:33N 49°17' W 123°06'0 0.3
2015-May-20 23:33N 49°17' W 123°06'6 5.5
2015-May-20 22:33N 49°18' W 122°57'5 4.6
2015-May-20 21:33N 49°22' W 122°53'5 4.6
2015-May-20 20:23N 49°27' W 122°52'6 7.6
2015-May-20 19:33N 49°21' W 122°53'4 4.0
2015-May-20 18:33N 49°18' W 122°57'6 5.8
2015-May-20 17:30N 49°17' W 123°06'0 0.0
2015-May-20 16:33N 49°17' W 123°06'0 0.0
2015-May-20 15:34N 49°17' W 123°06'0 0.0
2015-May-20 14:26N 49°17' W 123°06'0 0.0
2015-May-20 13:33N 49°17' W 123°06'0 0.0
2015-May-20 12:33N 49°17' W 123°06'0 0.0
2015-May-20 11:33N 49°17' W 123°06'0 0.0
2015-May-20 10:33N 49°17' W 123°06'0 0.0
2015-May-20 09:33N 49°17' W 123°06'0 0.0
2015-May-20 08:33N 49°17' W 123°06'0 0.0
2015-May-20 07:33N 49°17' W 123°06'0 0.0
2015-May-20 06:33N 49°17' W 123°06'0 0.0
2015-May-20 05:14N 49°17' W 123°06'0 0.1
2015-May-20 04:33N 49°17' W 123°06'0 0.0
2015-May-20 03:33N 49°17' W 123°06'0 0.0
2015-May-20 02:33N 49°17' W 123°06'0 0.0
2015-May-20 01:33N 49°17' W 123°06'0 0.0
2015-May-20 00:33N 49°17' W 123°06'0 0.0
2015-May-19 23:33N 49°17' W 123°06'0 0.0
2015-May-19 22:33N 49°17' W 123°06'0 0.0
2015-May-19 21:32N 49°17' W 123°06'0 0.3
2015-May-19 20:33N 49°17' W 123°06'0 0.2
2015-May-19 19:33N 49°17' W 123°06'0 0.0
2015-May-19 18:32N 49°17' W 123°06'0 0.0
2015-May-19 17:25N 49°17' W 123°06'0 0.0
2015-May-19 16:33N 49°17' W 123°06'0 0.0
2015-May-19 15:33N 49°17' W 123°06'0 0.0
2015-May-19 14:33N 49°17' W 123°06'0 0.0
2015-May-19 13:33N 49°17' W 123°06'0 0.0
2015-May-19 12:33N 49°17' W 123°06'0 0.0
2015-May-19 11:30N 49°17' W 123°06'0 0.0
2015-May-19 10:33N 49°17' W 123°06'0 0.0
2015-May-19 09:31N 49°17' W 123°06'0 0.0
2015-May-19 08:33N 49°17' W 123°06'0 0.0
2015-May-19 07:33N 49°17' W 123°06'0 0.0
2015-May-19 06:33N 49°17' W 123°06'0 0.0
2015-May-19 05:15N 49°17' W 123°06'0 0.1
2015-May-19 04:33N 49°17' W 123°06'0 0.0
2015-May-19 03:33N 49°17' W 123°06'0 0.0
2015-May-19 02:30N 49°17' W 123°06'0 0.0
2015-May-19 01:26N 49°17' W 123°06'0 0.0
2015-May-19 00:33N 49°17' W 123°06'0 0.0
2015-May-18 23:31N 49°17' W 123°06'0 0.0
2015-May-18 22:33N 49°17' W 123°06'0 0.0
2015-May-18 21:27N 49°17' W 123°06'0 0.0
2015-May-18 20:32N 49°17' W 123°06'0 0.0
2015-May-18 19:33N 49°17' W 123°06'0 0.0
2015-May-18 18:32N 49°17' W 123°06'0 0.0
2015-May-18 16:32N 49°17' W 123°06'0 0.0
2015-May-18 15:32N 49°17' W 123°06'0 0.0
2015-May-18 14:32N 49°17' W 123°06'0 0.0
2015-May-18 13:33N 49°17' W 123°06'0 0.0
2015-May-18 12:18N 49°17' W 123°06'0 0.0
2015-May-18 10:05N 49°17' W 123°06'0 0.0
2015-May-18 04:32N 49°17' W 123°06'0 0.0
2015-May-18 03:30N 49°17' W 123°06'0 0.0
2015-May-18 00:09N 49°17' W 123°06'0 0.0
2015-May-17 22:04N 49°17' W 123°06'0 0.0
2015-May-17 19:14N 49°17' W 123°06'0 0.0
2015-May-17 18:33N 49°17' W 123°06'0 0.0
2015-May-17 17:29N 49°17' W 123°06'0 0.0
2015-May-17 16:33N 49°17' W 123°06'0 0.0
2015-May-17 15:33N 49°17' W 123°06'0 0.0
2015-May-17 14:33N 49°17' W 123°06'0 0.0
2015-May-17 13:33N 49°17' W 123°06'0 0.0
2015-May-17 12:33N 49°17' W 123°06'0 0.0
2015-May-17 11:33N 49°17' W 123°06'0 0.0
2015-May-17 10:23N 49°17' W 123°06'0 0.0
2015-May-17 09:26N 49°17' W 123°06'0 0.0
2015-May-17 08:33N 49°17' W 123°06'0 0.0
2015-May-17 07:33N 49°17' W 123°06'0 0.0
2015-May-17 06:33N 49°17' W 123°06'0 0.0
2015-May-17 05:32N 49°17' W 123°06'0 0.0
2015-May-17 04:33N 49°17' W 123°06'0 0.0
2015-May-17 03:33N 49°17' W 123°06'0 0.0
2015-May-17 01:33N 49°17' W 123°06'0 0.0
2015-May-17 00:29N 49°17' W 123°06'0 0.0
2015-May-16 23:33N 49°17' W 123°06'0 0.0
2015-May-16 22:33N 49°17' W 123°06'0 0.0
2015-May-16 21:29N 49°17' W 123°06'0 0.0
2015-May-16 20:33N 49°17' W 123°06'0 0.0
2015-May-16 19:33N 49°17' W 123°06'0 0.0
2015-May-16 18:33N 49°17' W 123°06'0 0.0
2015-May-16 17:33N 49°17' W 123°06'0 0.0
2015-May-16 16:33N 49°17' W 123°06'0 0.0
2015-May-16 15:33N 49°17' W 123°06'0 0.0
2015-May-16 14:30N 49°17' W 123°06'0 0.0
2015-May-16 13:33N 49°17' W 123°06'0 0.0
2015-May-16 12:33N 49°17' W 123°06'0 0.0
2015-May-16 11:33N 49°17' W 123°06'0 0.0
2015-May-16 10:16N 49°17' W 123°06'0 0.1
2015-May-16 09:33N 49°17' W 123°06'0 0.0
2015-May-16 08:33N 49°17' W 123°06'0 0.0
2015-May-16 07:33N 49°17' W 123°06'0 0.0
2015-May-16 06:33N 49°17' W 123°06'0 0.0
2015-May-16 05:30N 49°17' W 123°06'0 0.0
2015-May-16 04:33N 49°17' W 123°06'0 0.0
2015-May-16 03:33N 49°17' W 123°06'0 0.0
2015-May-16 01:30N 49°17' W 123°06'0 0.0
2015-May-16 00:32N 49°17' W 123°06'0 0.0
2015-May-15 23:33N 49°17' W 123°06'0 0.0
2015-May-15 22:33N 49°17' W 123°06'2 1.6
2015-May-15 21:33N 49°19' W 123°05'0 0.3
2015-May-15 20:33N 49°19' W 123°05'2 1.5
2015-May-15 19:33N 49°18' W 123°03'2 2.3
2015-May-15 18:33N 49°17' W 123°06'0 0.0
2015-May-15 17:33N 49°17' W 123°06'0 0.0
2015-May-15 16:33N 49°17' W 123°06'0 0.0
2015-May-15 15:33N 49°17' W 123°06'0 0.0
2015-May-15 14:33N 49°17' W 123°06'0 0.0
2015-May-15 13:33N 49°17' W 123°06'0 0.0
2015-May-15 12:33N 49°17' W 123°06'0 0.0
2015-May-15 11:33N 49°17' W 123°06'0 0.0
2015-May-15 10:33N 49°17' W 123°06'0 0.0
2015-May-15 09:33N 49°17' W 123°06'0 0.0
2015-May-15 08:33N 49°17' W 123°06'0 0.0
2015-May-15 07:33N 49°17' W 123°06'0 0.0
2015-May-15 06:33N 49°17' W 123°06'0 0.0
2015-May-15 05:31N 49°17' W 123°06'0 0.0
2015-May-15 04:33N 49°17' W 123°06'0 0.0
2015-May-15 03:33N 49°17' W 123°06'0 0.0
2015-May-15 02:19N 49°17' W 123°06'0 0.0
2015-May-15 01:26N 49°17' W 123°06'0 0.0
2015-May-15 00:33N 49°17' W 123°06'0 0.0
2015-May-14 23:33N 49°17' W 123°06'0 0.0
2015-May-14 22:33N 49°17' W 123°06'0 0.0
2015-May-14 21:30N 49°17' W 123°06'0 0.0
2015-May-14 20:33N 49°17' W 123°06'0 0.0
2015-May-14 19:33N 49°17' W 123°06'0 0.0
2015-May-14 18:33N 49°17' W 123°06'0 0.0
2015-May-14 17:31N 49°17' W 123°06'0 0.0
2015-May-14 16:33N 49°17' W 123°06'0 0.0
2015-May-14 15:33N 49°17' W 123°06'0 0.0
2015-May-14 14:24N 49°17' W 123°06'0 0.0
2015-May-14 13:33N 49°17' W 123°06'0 0.0
2015-May-14 12:33N 49°17' W 123°06'0 0.0
2015-May-14 11:33N 49°17' W 123°06'0 0.0
2015-May-14 10:33N 49°17' W 123°06'0 0.0
2015-May-14 09:33N 49°17' W 123°06'0 0.0
2015-May-14 08:33N 49°17' W 123°06'0 0.0
2015-May-14 07:33N 49°17' W 123°06'0 0.0
2015-May-14 06:33N 49°17' W 123°06'0 0.0
2015-May-14 05:33N 49°17' W 123°06'0 0.0
2015-May-14 04:33N 49°17' W 123°06'0 0.0
2015-May-14 03:33N 49°17' W 123°06'0 0.1
2015-May-14 02:28N 49°17' W 123°06'0 0.1
2015-May-14 01:33N 49°17' W 123°06'0 0.0
2015-May-14 00:32N 49°17' W 123°06'0 0.0
2015-May-13 23:33N 49°17' W 123°06'0 0.0
2015-May-13 22:33N 49°17' W 123°06'0 0.0
2015-May-13 21:33N 49°17' W 123°06'0 0.0
2015-May-13 20:33N 49°17' W 123°06'0 0.0
2015-May-13 19:33N 49°17' W 123°06'0 0.0
2015-May-13 18:33N 49°17' W 123°06'0 0.4
2015-May-13 17:33N 49°17' W 123°07'0 0.0
2015-May-13 16:33N 49°17' W 123°07'0 0.4
2015-May-13 15:33N 49°17' W 123°06'0 0.0
2015-May-13 14:29N 49°17' W 123°06'0 0.0
2015-May-13 13:33N 49°17' W 123°06'0 0.0
2015-May-13 12:32N 49°17' W 123°06'0 0.0
2015-May-13 11:33N 49°17' W 123°06'0 0.0
2015-May-13 10:30N 49°17' W 123°06'0 0.0
2015-May-13 09:31N 49°17' W 123°06'0 0.0
2015-May-13 08:33N 49°17' W 123°06'0 0.0
2015-May-13 07:33N 49°17' W 123°06'0 0.1
2015-May-13 06:30N 49°17' W 123°06'0 0.0
2015-May-13 05:33N 49°17' W 123°06'0 0.0
2015-May-13 04:32N 49°17' W 123°06'  
Track history (hours):
 
Tides and Currents Weather Stations Pressure Air Temp Water Temp Dewpoint Dewpoint Depression Visibility Wind Speed Wind Dir Waves Ship Positions

Vfpa 1

Last reported at 2015-May-23 03:33 UTC. Time now 2015-May-23 04:21 UTC.
Position N 49°17' W 123°06'.

; draft 1.4 m.

Type: Dredging. MMSI: 316014014.

Date/timePositionNaut miles runAvg speedWind from/ knotsBaromVisibWave heightAir tempDewpointWater temp
2015-May-23 03:33N 49°17' W 123°06'0 0.0
2015-May-23 02:33N 49°17' W 123°06'0 0.0
2015-May-23 01:30N 49°17' W 123°06'0 0.0
2015-May-23 00:33N 49°17' W 123°06'0 0.0
2015-May-22 23:33N 49°17' W 123°06'0 0.0
2015-May-22 22:34N 49°17' W 123°06'0 0.0
2015-May-22 21:32N 49°17' W 123°06'0 0.0
2015-May-22 20:32N 49°17' W 123°06'0 0.0
2015-May-22 19:34N 49°17' W 123°06'0 0.0
2015-May-22 18:33N 49°17' W 123°06'0 0.0
2015-May-22 17:32N 49°17' W 123°06'0 0.0
2015-May-22 16:34N 49°17' W 123°06'0 0.0
2015-May-22 15:34N 49°17' W 123°06'0 0.0
2015-May-22 14:33N 49°17' W 123°06'0 0.0
2015-May-22 13:33N 49°17' W 123°06'0 0.0
2015-May-22 12:33N 49°17' W 123°06'0 0.0
2015-May-22 11:32N 49°17' W 123°06'0 0.0
2015-May-22 10:34N 49°17' W 123°06'0 0.0
2015-May-22 09:26N 49°17' W 123°06'0 0.0
2015-May-22 08:33N 49°17' W 123°06'0 0.0
2015-May-22 07:33N 49°17' W 123°06'0 0.0
2015-May-22 06:34N 49°17' W 123°06'0 0.0
2015-May-22 05:32N 49°17' W 123°06'0 0.0
2015-May-22 04:33N 49°17' W 123°06'0 0.0
2015-May-22 03:33N 49°17' W 123°06'0 0.0
2015-May-22 02:33N 49°17' W 123°06'0 0.0
2015-May-22 01:33N 49°17' W 123°06'0 0.0
2015-May-22 00:31N 49°17' W 123°06'0 0.0
2015-May-21 23:34N 49°17' W 123°06'0 0.0
2015-May-21 22:33N 49°17' W 123°06'5 5.3
2015-May-21 21:34N 49°18' W 122°58'7 6.6
2015-May-21 20:33N 49°19' W 123°08'2 1.9
2015-May-21 19:33N 49°17' W 123°06'0 0.2
2015-May-21 18:33N 49°17' W 123°06'2 1.5
2015-May-21 17:33N 49°19' W 123°06'2 1.5
2015-May-21 16:33N 49°17' W 123°06'0 0.0
2015-May-21 15:33N 49°17' W 123°06'0 0.0
2015-May-21 14:33N 49°17' W 123°06'0 0.0
2015-May-21 13:33N 49°17' W 123°06'0 0.0
2015-May-21 12:33N 49°17' W 123°06'0 0.0
2015-May-21 11:33N 49°17' W 123°06'0 0.0
2015-May-21 10:31N 49°17' W 123°06'0 0.0
2015-May-21 09:31N 49°17' W 123°06'0 0.0
2015-May-21 08:33N 49°17' W 123°06'0 0.0
2015-May-21 07:33N 49°17' W 123°06'0 0.0
2015-May-21 06:33N 49°17' W 123°06'0 0.0
2015-May-21 05:32N 49°17' W 123°06'0 0.0
2015-May-21 04:33N 49°17' W 123°06'0 0.0
2015-May-21 03:33N 49°17' W 123°06'0 0.0
2015-May-21 02:33N 49°17' W 123°06'0 0.0
2015-May-21 01:30N 49°17' W 123°06'0 0.0
2015-May-21 00:33N 49°17' W 123°06'0 0.3
2015-May-20 23:33N 49°17' W 123°06'6 5.5
2015-May-20 22:33N 49°18' W 122°57'5 4.6
2015-May-20 21:33N 49°22' W 122°53'5 4.6
2015-May-20 20:23N 49°27' W 122°52'6 7.6
2015-May-20 19:33N 49°21' W 122°53'4 4.0
2015-May-20 18:33N 49°18' W 122°57'6 5.8
2015-May-20 17:30N 49°17' W 123°06'0 0.0
2015-May-20 16:33N 49°17' W 123°06'0 0.0
2015-May-20 15:34N 49°17' W 123°06'0 0.0
2015-May-20 14:26N 49°17' W 123°06'0 0.0
2015-May-20 13:33N 49°17' W 123°06'0 0.0
2015-May-20 12:33N 49°17' W 123°06'0 0.0
2015-May-20 11:33N 49°17' W 123°06'0 0.0
2015-May-20 10:33N 49°17' W 123°06'0 0.0
2015-May-20 09:33N 49°17' W 123°06'0 0.0
2015-May-20 08:33N 49°17' W 123°06'0 0.0
2015-May-20 07:33N 49°17' W 123°06'0 0.0
2015-May-20 06:33N 49°17' W 123°06'0 0.0
2015-May-20 05:14N 49°17' W 123°06'0 0.1
2015-May-20 04:33N 49°17' W 123°06'0 0.0
2015-May-20 03:33N 49°17' W 123°06'0 0.0
2015-May-20 02:33N 49°17' W 123°06'0 0.0
2015-May-20 01:33N 49°17' W 123°06'0 0.0
2015-May-20 00:33N 49°17' W 123°06'0 0.0
2015-May-19 23:33N 49°17' W 123°06'0 0.0
2015-May-19 22:33N 49°17' W 123°06'0 0.0
2015-May-19 21:32N 49°17' W 123°06'0 0.3
2015-May-19 20:33N 49°17' W 123°06'0 0.2
2015-May-19 19:33N 49°17' W 123°06'0 0.0
2015-May-19 18:32N 49°17' W 123°06'0 0.0
2015-May-19 17:25N 49°17' W 123°06'0 0.0
2015-May-19 16:33N 49°17' W 123°06'0 0.0
2015-May-19 15:33N 49°17' W 123°06'0 0.0
2015-May-19 14:33N 49°17' W 123°06'0 0.0
2015-May-19 13:33N 49°17' W 123°06'0 0.0
2015-May-19 12:33N 49°17' W 123°06'0 0.0
2015-May-19 11:30N 49°17' W 123°06'0 0.0
2015-May-19 10:33N 49°17' W 123°06'0 0.0
2015-May-19 09:31N 49°17' W 123°06'0 0.0
2015-May-19 08:33N 49°17' W 123°06'0 0.0
2015-May-19 07:33N 49°17' W 123°06'0 0.0
2015-May-19 06:33N 49°17' W 123°06'0 0.0
2015-May-19 05:15N 49°17' W 123°06'0 0.1
2015-May-19 04:33N 49°17' W 123°06'0 0.0
2015-May-19 03:33N 49°17' W 123°06'0 0.0
2015-May-19 02:30N 49°17' W 123°06'0 0.0
2015-May-19 01:26N 49°17' W 123°06'0 0.0
2015-May-19 00:33N 49°17' W 123°06'0 0.0
2015-May-18 23:31N 49°17' W 123°06'0 0.0
2015-May-18 22:33N 49°17' W 123°06'0 0.0
2015-May-18 21:27N 49°17' W 123°06'0 0.0
2015-May-18 20:32N 49°17' W 123°06'0 0.0
2015-May-18 19:33N 49°17' W 123°06'0 0.0
2015-May-18 18:32N 49°17' W 123°06'0 0.0
2015-May-18 16:32N 49°17' W 123°06'0 0.0
2015-May-18 15:32N 49°17' W 123°06'0 0.0
2015-May-18 14:32N 49°17' W 123°06'0 0.0
2015-May-18 13:33N 49°17' W 123°06'0 0.0
2015-May-18 12:18N 49°17' W 123°06'0 0.0
2015-May-18 10:05N 49°17' W 123°06'0 0.0
2015-May-18 04:32N 49°17' W 123°06'0 0.0
2015-May-18 03:30N 49°17' W 123°06'0 0.0
2015-May-18 00:09N 49°17' W 123°06'0 0.0
2015-May-17 22:04N 49°17' W 123°06'0 0.0
2015-May-17 19:14N 49°17' W 123°06'0 0.0
2015-May-17 18:33N 49°17' W 123°06'0 0.0
2015-May-17 17:29N 49°17' W 123°06'0 0.0
2015-May-17 16:33N 49°17' W 123°06'0 0.0
2015-May-17 15:33N 49°17' W 123°06'0 0.0
2015-May-17 14:33N 49°17' W 123°06'0 0.0
2015-May-17 13:33N 49°17' W 123°06'0 0.0
2015-May-17 12:33N 49°17' W 123°06'0 0.0
2015-May-17 11:33N 49°17' W 123°06'0 0.0
2015-May-17 10:23N 49°17' W 123°06'0 0.0
2015-May-17 09:26N 49°17' W 123°06'0 0.0
2015-May-17 08:33N 49°17' W 123°06'0 0.0
2015-May-17 07:33N 49°17' W 123°06'0 0.0
2015-May-17 06:33N 49°17' W 123°06'0 0.0
2015-May-17 05:32N 49°17' W 123°06'0 0.0
2015-May-17 04:33N 49°17' W 123°06'0 0.0
2015-May-17 03:33N 49°17' W 123°06'0 0.0
2015-May-17 01:33N 49°17' W 123°06'0 0.0
2015-May-17 00:29N 49°17' W 123°06'0 0.0
2015-May-16 23:33N 49°17' W 123°06'0 0.0
2015-May-16 22:33N 49°17' W 123°06'0 0.0
2015-May-16 21:29N 49°17' W 123°06'0 0.0
2015-May-16 20:33N 49°17' W 123°06'0 0.0
2015-May-16 19:33N 49°17' W 123°06'0 0.0
2015-May-16 18:33N 49°17' W 123°06'0 0.0
2015-May-16 17:33N 49°17' W 123°06'0 0.0
2015-May-16 16:33N 49°17' W 123°06'0 0.0
2015-May-16 15:33N 49°17' W 123°06'0 0.0
2015-May-16 14:30N 49°17' W 123°06'0 0.0
2015-May-16 13:33N 49°17' W 123°06'0 0.0
2015-May-16 12:33N 49°17' W 123°06'0 0.0
2015-May-16 11:33N 49°17' W 123°06'0 0.0
2015-May-16 10:16N 49°17' W 123°06'0 0.1
2015-May-16 09:33N 49°17' W 123°06'0 0.0
2015-May-16 08:33N 49°17' W 123°06'0 0.0
2015-May-16 07:33N 49°17' W 123°06'0 0.0
2015-May-16 06:33N 49°17' W 123°06'0 0.0
2015-May-16 05:30N 49°17' W 123°06'0 0.0
2015-May-16 04:33N 49°17' W 123°06'0 0.0
2015-May-16 03:33N 49°17' W 123°06'0 0.0
2015-May-16 01:30N 49°17' W 123°06'0 0.0
2015-May-16 00:32N 49°17' W 123°06'0 0.0
2015-May-15 23:33N 49°17' W 123°06'0 0.0
2015-May-15 22:33N 49°17' W 123°06'2 1.6
2015-May-15 21:33N 49°19' W 123°05'0 0.3
2015-May-15 20:33N 49°19' W 123°05'2 1.5
2015-May-15 19:33N 49°18' W 123°03'2 2.3
2015-May-15 18:33N 49°17' W 123°06'0 0.0
2015-May-15 17:33N 49°17' W 123°06'0 0.0
2015-May-15 16:33N 49°17' W 123°06'0 0.0
2015-May-15 15:33N 49°17' W 123°06'0 0.0
2015-May-15 14:33N 49°17' W 123°06'0 0.0
2015-May-15 13:33N 49°17' W 123°06'0 0.0
2015-May-15 12:33N 49°17' W 123°06'0 0.0
2015-May-15 11:33N 49°17' W 123°06'0 0.0
2015-May-15 10:33N 49°17' W 123°06'0 0.0
2015-May-15 09:33N 49°17' W 123°06'0 0.0
2015-May-15 08:33N 49°17' W 123°06'0 0.0
2015-May-15 07:33N 49°17' W 123°06'0 0.0
2015-May-15 06:33N 49°17' W 123°06'0 0.0
2015-May-15 05:31N 49°17' W 123°06'0 0.0
2015-May-15 04:33N 49°17' W 123°06'0 0.0
2015-May-15 03:33N 49°17' W 123°06'0 0.0
2015-May-15 02:19N 49°17' W 123°06'0 0.0
2015-May-15 01:26N 49°17' W 123°06'0 0.0
2015-May-15 00:33N 49°17' W 123°06'0 0.0
2015-May-14 23:33N 49°17' W 123°06'0 0.0
2015-May-14 22:33N 49°17' W 123°06'0 0.0
2015-May-14 21:30N 49°17' W 123°06'0 0.0
2015-May-14 20:33N 49°17' W 123°06'0 0.0
2015-May-14 19:33N 49°17' W 123°06'0 0.0
2015-May-14 18:33N 49°17' W 123°06'0 0.0
2015-May-14 17:31N 49°17' W 123°06'0 0.0
2015-May-14 16:33N 49°17' W 123°06'0 0.0
2015-May-14 15:33N 49°17' W 123°06'0 0.0
2015-May-14 14:24N 49°17' W 123°06'0 0.0
2015-May-14 13:33N 49°17' W 123°06'0 0.0
2015-May-14 12:33N 49°17' W 123°06'0 0.0
2015-May-14 11:33N 49°17' W 123°06'0 0.0
2015-May-14 10:33N 49°17' W 123°06'0 0.0
2015-May-14 09:33N 49°17' W 123°06'0 0.0
2015-May-14 08:33N 49°17' W 123°06'0 0.0
2015-May-14 07:33N 49°17' W 123°06'0 0.0
2015-May-14 06:33N 49°17' W 123°06'0 0.0
2015-May-14 05:33N 49°17' W 123°06'0 0.0
2015-May-14 04:33N 49°17' W 123°06'0 0.0
2015-May-14 03:33N 49°17' W 123°06'0 0.1
2015-May-14 02:28N 49°17' W 123°06'0 0.1
2015-May-14 01:33N 49°17' W 123°06'0 0.0
2015-May-14 00:32N 49°17' W 123°06'0 0.0
2015-May-13 23:33N 49°17' W 123°06'0 0.0
2015-May-13 22:33N 49°17' W 123°06'0 0.0
2015-May-13 21:33N 49°17' W 123°06'0 0.0
2015-May-13 20:33N 49°17' W 123°06'0 0.0
2015-May-13 19:33N 49°17' W 123°06'0 0.0
2015-May-13 18:33N 49°17' W 123°06'0 0.4
2015-May-13 17:33N 49°17' W 123°07'0 0.0
2015-May-13 16:33N 49°17' W 123°07'0 0.4
2015-May-13 15:33N 49°17' W 123°06'0 0.0
2015-May-13 14:29N 49°17' W 123°06'0 0.0
2015-May-13 13:33N 49°17' W 123°06'0 0.0
2015-May-13 12:32N 49°17' W 123°06'0 0.0
2015-May-13 11:33N 49°17' W 123°06'0 0.0
2015-May-13 10:30N 49°17' W 123°06'0 0.0
2015-May-13 09:31N 49°17' W 123°06'0 0.0
2015-May-13 08:33N 49°17' W 123°06'0 0.0
2015-May-13 07:33N 49°17' W 123°06'0 0.1
2015-May-13 06:30N 49°17' W 123°06'0 0.0
2015-May-13 05:33N 49°17' W 123°06'0 0.0
2015-May-13 04:32N 49°17' W 123°06'  

Dump ship's entire track history